Time;durP1;ratioP1;P1;durP2;ratioP2;P2;SDS_P1;SDS_P2;PMS_P1;PMS_P2;Temp;Humidity;BMP_temperature;BMP_pressure;BME280_temperature;BME280_humidity;BME280_pressure;Samples;Min_cycle;Max_cycle;Signal;HPM_P1;HPM_P2
2022/02/08 00:00:27;;;;;;;0.30;0.30;;;-0.10;97.90;;;;;;5033767;28;20171;-70
2022/02/08 00:02:55;;;;;;;0.30;0.30;;;-0.10;98.00;;;;;;5034116;28;20225;-70
2022/02/08 00:05:23;;;;;;;0.30;0.30;;;0.00;98.10;;;;;;5032343;28;20197;-70
2022/02/08 00:07:52;;;;;;;0.40;0.40;;;0.10;98.00;;;;;;5033906;28;20163;-69
2022/02/08 00:10:18;;;;;;;0.40;0.40;;;0.20;97.90;;;;;;5033607;28;20658;-70
2022/02/08 00:12:44;;;;;;;0.40;0.40;;;0.20;97.60;;;;;;5033777;28;20186;-70
2022/02/08 00:15:11;;;;;;;0.40;0.40;;;0.20;97.50;;;;;;5033695;28;20199;-70
2022/02/08 00:17:37;;;;;;;0.40;0.40;;;0.20;97.60;;;;;;5033546;28;20405;-69
2022/02/08 00:20:07;;;;;;;0.40;0.40;;;0.30;97.50;;;;;;5033473;28;20535;-70
2022/02/08 00:22:37;;;;;;;0.40;0.40;;;0.20;97.20;;;;;;5032176;28;20548;-70
2022/02/08 00:25:04;;;;;;;0.40;0.40;;;0.30;97.10;;;;;;5033552;28;20191;-69
2022/02/08 00:27:30;;;;;;;0.30;0.30;;;0.30;97.10;;;;;;5033430;28;20321;-70
2022/02/08 00:29:56;;;;;;;0.40;0.40;;;0.30;97.20;;;;;;5033198;28;20246;-70
2022/02/08 00:32:21;;;;;;;0.33;0.33;;;0.40;97.40;;;;;;5032213;28;20178;-70
2022/02/08 00:34:48;;;;;;;0.30;0.30;;;0.50;97.50;;;;;;5033313;28;20452;-69
2022/02/08 00:37:14;;;;;;;0.30;0.30;;;0.50;97.50;;;;;;5033381;28;20163;-69
2022/02/08 00:39:40;;;;;;;0.30;0.30;;;0.60;97.50;;;;;;5033189;28;20217;-70
2022/02/08 00:42:09;;;;;;;0.40;0.40;;;0.70;97.30;;;;;;5033379;28;20230;-70
2022/02/08 00:44:42;;;;;;;0.30;0.30;;;0.70;97.00;;;;;;5033179;28;20261;-70
2022/02/08 00:49:40;;;;;;;0.30;0.30;;;0.70;96.80;;;;;;5033412;28;20647;-69
2022/02/08 00:52:13;;;;;;;0.30;0.30;;;0.70;96.80;;;;;;5036248;28;20178;-69
2022/02/08 00:54:39;;;;;;;0.40;0.40;;;0.70;96.90;;;;;;5037349;28;20589;-70
2022/02/08 00:57:05;;;;;;;0.30;0.30;;;0.90;97.00;;;;;;5037163;28;20209;-69
2022/02/08 00:59:31;;;;;;;0.40;0.40;;;0.90;96.90;;;;;;5037028;28;20177;-69
2022/02/08 01:01:56;;;;;;;0.30;0.30;;;1.00;96.90;;;;;;5037085;28;20507;-69
2022/02/08 01:04:24;;;;;;;0.40;0.40;;;1.10;97.00;;;;;;5037204;28;20420;-70
2022/02/08 01:06:51;;;;;;;0.40;0.40;;;1.10;96.90;;;;;;5037015;28;20194;-70
2022/02/08 01:09:20;;;;;;;0.30;0.30;;;1.10;96.90;;;;;;5036881;28;20233;-70
2022/02/08 01:11:51;;;;;;;0.30;0.30;;;1.20;97.00;;;;;;5036889;28;20169;-70
2022/02/08 01:14:17;;;;;;;0.30;0.30;;;1.20;98.20;;;;;;5037051;28;20197;-69
2022/02/08 01:16:43;;;;;;;0.30;0.30;;;1.30;96.60;;;;;;5036976;28;20278;-70
2022/02/08 01:19:09;;;;;;;0.30;0.30;;;1.30;96.60;;;;;;5036765;28;20441;-69
2022/02/08 01:21:35;;;;;;;0.30;0.30;;;1.30;96.40;;;;;;5036813;28;20198;-70
2022/02/08 01:24:01;;;;;;;0.30;0.30;;;1.40;96.50;;;;;;5036671;28;20536;-69
2022/02/08 01:26:29;;;;;;;0.30;0.30;;;1.50;96.40;;;;;;5035207;28;20498;-70
2022/02/08 01:29:02;;;;;;;0.30;0.30;;;1.50;96.30;;;;;;5035229;28;20178;-70
2022/02/08 01:31:29;;;;;;;0.40;0.40;;;1.50;96.30;;;;;;5036789;28;20523;-69
2022/02/08 01:37:07;;;;;;;0.30;0.30;;;1.50;96.20;;;;;;4995069;28;20364;-70
2022/02/08 01:39:45;;;;;;;0.30;0.30;;;1.50;96.20;;;;;;5031231;28;20210;-70
2022/02/08 01:50:21;;;;;;;0.30;0.30;;;1.60;96.10;;;;;;4994751;28;20195;-70
2022/02/08 01:52:47;;;;;;;0.40;0.40;;;1.60;96.20;;;;;;5027782;28;20282;-70
2022/02/08 01:55:14;;;;;;;0.30;0.30;;;1.70;96.30;;;;;;5036331;28;20558;-69
2022/02/08 01:57:40;;;;;;;0.40;0.40;;;1.80;96.40;;;;;;5036501;28;20531;-70
2022/02/08 02:00:09;;;;;;;0.40;0.40;;;1.80;96.30;;;;;;5035821;28;20175;-70
2022/02/08 02:02:35;;;;;;;0.38;0.38;;;1.70;96.30;;;;;;5034635;28;20580;-69
2022/02/08 02:05:01;;;;;;;0.50;0.50;;;1.70;96.50;;;;;;5036024;28;20305;-69
2022/02/08 02:07:26;;;;;;;0.30;0.30;;;1.70;96.60;;;;;;5035817;28;20177;-70
2022/02/08 02:09:52;;;;;;;0.30;0.30;;;1.70;96.70;;;;;;5035773;28;20633;-69
2022/02/08 02:12:18;;;;;;;0.30;0.30;;;1.80;96.70;;;;;;5036053;28;20578;-69
2022/02/08 02:14:45;;;;;;;0.30;0.30;;;1.80;96.50;;;;;;5035634;28;20931;-70
2022/02/08 02:17:11;;;;;;;0.30;0.30;;;1.70;96.40;;;;;;5035558;28;20180;-70
2022/02/08 02:19:39;;;;;;;0.30;0.30;;;1.70;96.40;;;;;;5035465;28;20194;-70
2022/02/08 02:22:06;;;;;;;0.40;0.40;;;1.80;96.50;;;;;;5034323;28;20215;-70
2022/02/08 02:24:32;;;;;;;0.30;0.30;;;1.70;96.40;;;;;;5035304;28;20645;-70
2022/02/08 02:26:59;;;;;;;0.30;0.30;;;1.80;96.40;;;;;;5035405;28;20178;-70
2022/02/08 02:29:26;;;;;;;0.30;0.30;;;1.70;96.30;;;;;;5035368;28;20201;-70
2022/02/08 02:31:52;;;;;;;0.40;0.40;;;1.70;96.30;;;;;;5035583;28;20196;-69
2022/02/08 02:34:20;;;;;;;0.30;0.30;;;1.70;98.00;;;;;;5035367;28;20270;-70
2022/02/08 02:36:47;;;;;;;0.30;0.30;;;1.60;96.20;;;;;;5035278;28;20313;-70
2022/02/08 02:39:14;;;;;;;0.32;0.32;;;1.60;96.40;;;;;;5035136;28;20250;-69
2022/02/08 02:41:43;;;;;;;0.30;0.30;;;1.60;96.50;;;;;;5035230;28;20561;-70
2022/02/08 02:44:12;;;;;;;0.30;0.30;;;1.60;96.60;;;;;;5035206;28;20246;-70
2022/02/08 02:46:38;;;;;;;0.30;0.30;;;1.50;96.50;;;;;;5035147;28;20254;-70
2022/02/08 02:49:05;;;;;;;0.40;0.40;;;1.50;96.50;;;;;;5035000;28;20178;-70
2022/02/08 02:51:31;;;;;;;0.30;0.30;;;1.40;96.50;;;;;;5035203;28;20637;-69
2022/02/08 02:53:58;;;;;;;0.40;0.40;;;1.40;96.50;;;;;;5033739;28;20213;-69
2022/02/08 02:56:24;;;;;;;0.40;0.40;;;1.40;96.70;;;;;;5034878;28;20194;-69
2022/02/08 02:58:52;;;;;;;0.30;0.30;;;1.30;96.60;;;;;;5034931;28;20178;-69
2022/02/08 03:01:47;;;;;;;0.30;0.30;;;1.30;96.80;;;;;;5034939;28;20257;-69
2022/02/08 03:20:48;;;;;;;0.40;0.40;;;0.70;97.30;;;;;;5034736;28;20261;-69
2022/02/08 03:23:16;;;;;;;0.30;0.30;;;0.60;97.10;;;;;;5034401;28;20225;-70
2022/02/08 03:25:43;;;;;;;0.35;0.35;;;0.60;97.40;;;;;;5034301;28;20191;-70
2022/02/08 03:28:09;;;;;;;0.40;0.40;;;0.50;97.30;;;;;;5034550;28;20254;-69
2022/02/08 03:30:35;;;;;;;0.30;0.30;;;0.50;97.50;;;;;;5034174;28;20222;-69
2022/02/08 03:33:01;;;;;;;0.55;0.55;;;0.50;97.60;;;;;;5034068;28;20434;-69
2022/02/08 03:35:26;;;;;;;0.30;0.30;;;0.50;97.60;;;;;;5034200;28;20237;-69
2022/02/08 03:38:02;;;;;;;0.40;0.40;;;0.40;97.50;;;;;;5034266;28;20167;-69
2022/02/08 03:40:39;;;;;;;0.30;0.30;;;0.40;97.60;;;;;;5034200;28;20207;-69
2022/02/08 03:43:14;;;;;;;0.40;0.40;;;0.40;97.60;;;;;;5034271;28;20201;-70
2022/02/08 03:45:46;;;;;;;0.30;0.30;;;0.30;97.60;;;;;;5034013;28;20277;-70
2022/02/08 03:48:15;;;;;;;0.40;0.40;;;0.20;97.60;;;;;;5033828;28;20175;-70
2022/02/08 03:50:43;;;;;;;0.30;0.30;;;0.10;97.70;;;;;;5034060;28;20171;-69
2022/02/08 03:53:09;;;;;;;0.40;0.40;;;0.10;98.00;;;;;;5034161;28;20524;-69
2022/02/08 03:55:35;;;;;;;0.40;0.40;;;0.10;98.10;;;;;;5034045;28;20285;-69
2022/02/08 03:58:00;;;;;;;0.50;0.50;;;0.10;98.20;;;;;;5033766;28;20185;-69
2022/02/08 04:00:30;;;;;;;0.40;0.40;;;0.00;98.30;;;;;;5033587;28;20182;-69
2022/02/08 04:02:57;;;;;;;0.45;0.45;;;0.00;98.30;;;;;;5033723;28;20198;-69
2022/02/08 04:05:33;;;;;;;0.30;0.30;;;0.00;98.20;;;;;;5033679;28;20203;-70
2022/02/08 04:08:03;;;;;;;0.45;0.45;;;0.00;98.20;;;;;;5033723;28;20147;-69
2022/02/08 04:10:30;;;;;;;0.45;0.45;;;0.00;98.10;;;;;;5033647;28;20621;-69
2022/02/08 04:13:20;;;;;;;0.40;0.40;;;0.10;98.10;;;;;;5032378;28;20232;-69
2022/02/08 04:45:51;;;;;;;0.40;0.40;;;-0.10;98.60;;;;;;5033356;28;20186;-70
2022/02/08 04:50:24;;;;;;;0.40;0.40;;;-0.20;97.90;;;;;;5033361;28;20182;-69
2022/02/08 04:52:52;;;;;;;0.40;0.40;;;-0.40;97.80;;;;;;5033377;28;20513;-69
2022/02/08 04:55:35;;;;;;;0.40;0.40;;;-0.40;98.20;;;;;;5031980;28;20209;-70
2022/02/08 05:01:15;;;;;;;0.40;0.40;;;-0.20;98.40;;;;;;5033170;28;20236;-69
2022/02/08 05:42:09;;;;;;;0.40;0.40;;;-0.50;98.00;;;;;;5036614;28;20757;-69
2022/02/08 05:44:44;;;;;;;0.40;0.40;;;-0.50;98.10;;;;;;5036477;28;20199;-70
2022/02/08 05:47:10;;;;;;;0.40;0.40;;;-0.50;98.00;;;;;;5035076;28;20185;-71
2022/02/08 05:49:50;;;;;;;0.30;0.30;;;-0.50;98.10;;;;;;5034912;28;20171;-70
2022/02/08 05:54:43;;;;;;;0.30;0.30;;;2.70;99.90;;;;;;5036480;28;20215;-73
2022/02/08 05:57:10;;;;;;;0.32;0.32;;;3.10;99.90;;;;;;5034006;28;20183;-70
2022/02/08 05:59:36;;;;;;;0.30;0.30;;;3.00;96.20;;;;;;5036124;28;20172;-71
2022/02/08 06:02:03;;;;;;;0.30;0.30;;;2.60;94.90;;;;;;5034590;28;20260;-71
2022/02/08 06:04:29;;;;;;;0.40;0.40;;;2.20;94.10;;;;;;5035957;28;20197;-71
2022/02/08 06:06:56;;;;;;;0.40;0.40;;;1.70;93.60;;;;;;5035942;28;20167;-71
2022/02/08 06:09:22;;;;;;;0.40;0.40;;;1.30;93.50;;;;;;5034323;28;20412;-72
2022/02/08 06:11:47;;;;;;;0.30;0.30;;;1.00;93.60;;;;;;5035823;28;20171;-78
2022/02/08 06:14:13;;;;;;;0.30;0.30;;;0.60;94.00;;;;;;5036125;28;20410;-71
2022/02/08 06:16:39;;;;;;;0.30;0.30;;;0.50;94.60;;;;;;5034927;28;20171;-72
2022/02/08 06:19:05;;;;;;;0.40;0.40;;;0.30;94.80;;;;;;5035852;28;20408;-72
2022/02/08 06:21:32;;;;;;;0.40;0.40;;;0.10;95.10;;;;;;5035848;28;20253;-75
2022/02/08 06:23:58;;;;;;;0.30;0.30;;;0.00;95.30;;;;;;5036168;28;20635;-70
2022/02/08 06:26:24;;;;;;;0.40;0.40;;;-0.10;95.70;;;;;;5034435;28;20393;-70
2022/02/08 06:29:03;;;;;;;0.40;0.40;;;0.80;96.60;;;;;;5034444;28;20254;-70
2022/02/08 06:31:29;;;;;;;0.30;0.30;;;-0.20;96.30;;;;;;5036160;28;20170;-70
2022/02/08 06:33:55;;;;;;;0.40;0.40;;;-0.20;96.50;;;;;;5035452;28;20252;-70
2022/02/08 06:36:20;;;;;;;0.40;0.40;;;-0.20;96.60;;;;;;5032700;28;20187;-70
2022/02/08 06:38:46;;;;;;;0.50;0.50;;;-0.30;96.60;;;;;;5034027;28;20647;-71
2022/02/08 06:41:12;;;;;;;0.40;0.40;;;-0.30;96.70;;;;;;5034714;28;20233;-70
2022/02/08 06:43:38;;;;;;;0.40;0.40;;;-0.30;96.90;;;;;;5035284;28;20289;-70
2022/02/08 06:46:04;;;;;;;0.30;0.30;;;-0.30;97.00;;;;;;5035112;28;20221;-69
2022/02/08 06:48:30;;;;;;;0.40;0.40;;;-0.30;97.00;;;;;;5034496;28;20169;-70
2022/02/08 06:50:55;;;;;;;0.30;0.30;;;-0.30;97.10;;;;;;5035287;28;20171;-70
2022/02/08 06:53:21;;;;;;;0.30;0.30;;;-0.20;97.30;;;;;;5035305;28;20179;-70
2022/02/08 06:55:47;;;;;;;0.47;0.47;;;-0.20;97.40;;;;;;5035117;28;20621;-70
2022/02/08 06:58:15;;;;;;;0.40;0.40;;;-0.20;97.60;;;;;;5034879;28;20227;-70
2022/02/08 07:00:41;;;;;;;0.40;0.40;;;0.00;97.90;;;;;;5035057;28;20406;-70
2022/02/08 07:03:09;;;;;;;0.52;0.52;;;0.10;97.70;;;;;;5035225;28;20336;-71
2022/02/08 07:05:35;;;;;;;0.30;0.30;;;0.20;97.70;;;;;;5034795;28;20277;-70
2022/02/08 07:08:01;;;;;;;0.40;0.40;;;0.30;97.60;;;;;;5034971;28;20167;-70
2022/02/08 07:10:28;;;;;;;0.40;0.40;;;0.40;97.40;;;;;;5034634;28;20688;-70
2022/02/08 07:12:54;;;;;;;0.40;0.40;;;0.60;97.30;;;;;;5034741;28;20475;-70
2022/02/08 07:15:21;;;;;;;0.30;0.30;;;0.70;96.90;;;;;;5034561;28;20195;-70
2022/02/08 07:17:47;;;;;;;0.30;0.30;;;0.80;97.00;;;;;;5034414;28;20167;-70
2022/02/08 07:20:13;;;;;;;0.40;0.40;;;1.00;97.10;;;;;;5034194;28;20181;-71
2022/02/08 07:22:39;;;;;;;0.30;0.30;;;1.00;96.90;;;;;;5034427;28;20209;-71
2022/02/08 07:25:06;;;;;;;0.40;0.40;;;1.10;96.80;;;;;;5034461;28;20190;-71
2022/02/08 07:27:32;;;;;;;0.40;0.40;;;1.30;96.30;;;;;;5033710;28;20463;-70
2022/02/08 07:29:58;;;;;;;0.30;0.30;;;1.30;95.80;;;;;;5031657;28;20179;-70
2022/02/08 07:32:36;;;;;;;0.40;0.40;;;1.30;95.90;;;;;;5034865;28;20231;-69
2022/02/08 07:42:58;;;;;;;0.30;0.30;;;2.00;95.70;;;;;;5034817;28;20197;-72
2022/02/08 07:45:24;;;;;;;0.30;0.30;;;2.00;95.50;;;;;;5032824;28;20199;-75
2022/02/08 07:47:55;;;;;;;0.40;0.40;;;2.00;95.40;;;;;;5034491;28;20216;-73
2022/02/08 07:50:22;;;;;;;0.30;0.30;;;2.20;95.30;;;;;;5034284;28;20173;-74
2022/02/08 07:52:50;;;;;;;0.30;0.30;;;2.30;95.00;;;;;;5034521;28;20171;-73
2022/02/08 07:55:17;;;;;;;0.35;0.35;;;2.30;94.40;;;;;;5032960;28;20669;-70
2022/02/08 07:57:43;;;;;;;0.30;0.30;;;2.10;93.90;;;;;;5033247;28;20232;-72
2022/02/08 08:00:09;;;;;;;0.30;0.30;;;1.90;94.20;;;;;;5033739;28;20625;-72
2022/02/08 08:02:36;;;;;;;0.40;0.40;;;1.90;94.60;;;;;;5035255;28;20475;-73
2022/02/08 08:05:03;;;;;;;0.32;0.32;;;1.80;94.70;;;;;;5034198;28;20226;-71
2022/02/08 08:07:28;;;;;;;0.30;0.30;;;1.90;95.10;;;;;;5031485;28;20171;-77
2022/02/08 08:09:54;;;;;;;0.30;0.30;;;1.90;95.20;;;;;;5033560;28;20251;-75
2022/02/08 08:12:21;;;;;;;0.30;0.30;;;2.00;95.20;;;;;;5033704;28;20172;-70
2022/02/08 08:14:47;;;;;;;0.40;0.40;;;2.10;95.70;;;;;;5032804;28;20189;-70
2022/02/08 08:19:39;;;;;;;0.40;0.40;;;3.90;97.70;;;;;;5033688;28;20167;-68
2022/02/08 08:22:07;;;;;;;0.40;0.40;;;5.70;96.40;;;;;;5034035;28;20198;-69
2022/02/08 08:24:35;;;;;;;0.40;0.40;;;7.30;92.00;;;;;;5032784;28;20183;-79
2022/02/08 08:27:01;;;;;;;0.40;0.40;;;8.60;82.50;;;;;;5033524;28;20163;-74
2022/02/08 08:29:26;;;;;;;0.40;0.40;;;9.40;74.20;;;;;;5033575;28;20179;-74
2022/02/08 08:31:52;;;;;;;0.30;0.30;;;10.30;66.90;;;;;;5033738;28;20180;-74
2022/02/08 08:34:18;;;;;;;0.30;0.30;;;10.80;62.60;;;;;;5033813;28;20669;-76
2022/02/08 08:36:46;;;;;;;0.32;0.32;;;11.20;59.90;;;;;;5033951;28;20188;-69
2022/02/08 08:39:13;;;;;;;0.30;0.30;;;11.50;58.80;;;;;;5032999;28;20171;-76
2022/02/08 08:41:47;;;;;;;2.45;1.25;;;12.50;56.70;;;;;;5031877;28;20202;-73
2022/02/08 08:44:41;;;;;;;0.75;0.75;;;13.30;53.80;;;;;;5032927;28;20179;-73
2022/02/08 08:52:23;;;;;;;0.40;0.40;;;14.50;48.30;;;;;;5033580;28;20405;-71
2022/02/08 08:54:49;;;;;;;0.30;0.30;;;14.40;48.50;;;;;;5031698;28;20421;-70
2022/02/08 08:57:15;;;;;;;0.40;0.40;;;14.40;48.30;;;;;;5033253;28;20416;-71
2022/02/08 08:59:40;;;;;;;0.30;0.30;;;14.70;48.00;;;;;;5032934;28;20171;-71
2022/02/08 09:02:06;;;;;;;0.30;0.30;;;14.80;47.60;;;;;;5033200;28;20187;-70
2022/02/08 09:04:39;;;;;;;0.60;0.60;;;15.00;46.40;;;;;;5033227;28;20236;-70
2022/02/08 09:07:05;;;;;;;0.30;0.30;;;15.20;46.00;;;;;;5033429;28;20147;-69
2022/02/08 09:09:32;;;;;;;0.30;0.30;;;15.00;45.80;;;;;;5033098;28;20409;-70
2022/02/08 09:17:42;;;;;;;0.30;0.30;;;15.80;45.20;;;;;;5017732;28;20659;-70
2022/02/08 09:26:03;;;;;;;0.30;0.30;;;16.70;42.90;;;;;;5036856;28;20515;-70
2022/02/08 09:28:38;;;;;;;0.30;0.30;;;17.40;42.10;;;;;;5034914;28;20857;-69
2022/02/08 09:31:06;;;;;;;0.40;0.40;;;18.20;40.70;;;;;;5036886;28;20441;-70
2022/02/08 09:33:31;;;;;;;0.30;0.30;;;18.90;40.40;;;;;;5036473;28;20996;-73
2022/02/08 09:35:57;;;;;;;0.30;0.30;;;18.80;39.50;;;;;;5036390;28;20429;-70
2022/02/08 09:38:30;;;;;;;0.40;0.40;;;19.20;38.20;;;;;;5036281;28;20229;-71
2022/02/08 09:41:00;;;;;;;0.30;0.30;;;19.70;37.50;;;;;;5036492;28;20252;-72
2022/02/08 09:43:28;;;;;;;0.40;0.40;;;20.20;37.20;;;;;;5036429;28;20452;-72
2022/02/08 09:45:58;;;;;;;0.30;0.30;;;20.20;36.90;;;;;;5034975;28;20417;-71
2022/02/08 09:48:30;;;;;;;0.37;0.37;;;20.80;35.80;;;;;;5036252;28;20460;-70
2022/02/08 09:50:56;;;;;;;0.30;0.30;;;20.80;35.70;;;;;;5034549;28;20491;-71
2022/02/08 09:53:31;;;;;;;0.30;0.30;;;20.70;35.80;;;;;;5035057;28;20410;-71
2022/02/08 09:55:57;;;;;;;0.30;0.30;;;20.90;35.30;;;;;;5036246;28;20421;-70
2022/02/08 09:58:23;;;;;;;0.30;0.30;;;21.00;34.80;;;;;;5035780;28;20900;-70
2022/02/08 10:00:49;;;;;;;0.30;0.30;;;20.80;34.40;;;;;;5036008;28;20489;-72
2022/02/08 10:03:18;;;;;;;0.30;0.30;;;20.90;35.50;;;;;;5034701;28;20209;-72
2022/02/08 10:05:50;;;;;;;0.73;0.73;;;21.10;35.20;;;;;;5035819;28;20197;-71
2022/02/08 10:08:16;;;;;;;0.37;0.37;;;20.40;34.80;;;;;;5035870;28;20393;-71
2022/02/08 10:10:46;;;;;;;0.30;0.30;;;20.40;35.70;;;;;;5036025;28;20840;-71
2022/02/08 10:19:48;;;;;;;0.30;0.30;;;21.50;34.80;;;;;;5035959;28;20412;-71
2022/02/08 10:21:46;;;;;;;0.40;0.40;;;21.10;35.50;;;;;;5032480;28;20410;-71
2022/02/08 10:24:17;;;;;;;0.30;0.30;;;20.80;35.20;;;;;;5034469;28;20484;-71
2022/02/08 10:26:58;;;;;;;0.50;0.50;;;20.50;34.90;;;;;;5035641;28;20405;-72
2022/02/08 10:37:39;;;;;;;0.30;0.30;;;20.50;35.70;;;;;;5035634;28;20403;-71
2022/02/08 10:40:16;;;;;;;0.37;0.37;;;20.60;35.70;;;;;;5035212;28;20444;-71
2022/02/08 10:42:50;;;;;;;0.30;0.30;;;20.30;34.70;;;;;;5035677;28;21018;-72
2022/02/08 10:45:20;;;;;;;0.30;0.30;;;20.40;35.00;;;;;;5035156;28;20425;-71
2022/02/08 10:48:02;;;;;;;0.30;0.30;;;20.50;35.20;;;;;;5035575;28;20479;-71
2022/02/08 10:50:30;;;;;;;0.30;0.30;;;20.40;35.70;;;;;;5032654;28;20405;-74
2022/02/08 10:52:58;;;;;;;0.30;0.30;;;19.40;37.50;;;;;;5034872;28;20769;-71
2022/02/08 11:00:46;;;;;;;0.30;0.30;;;18.40;37.80;;;;;;5032818;28;20908;-71
2022/02/08 11:03:26;;;;;;;4.53;2.83;;;18.80;35.90;;;;;;5033428;28;20807;-71
2022/02/08 11:06:06;;;;;;;0.30;0.30;;;19.00;38.00;;;;;;5033863;28;20417;-70
2022/02/08 11:19:52;;;;;;;0.40;0.40;;;17.10;37.80;;;;;;5034440;28;20433;-70
2022/02/08 11:25:18;;;;;;;0.30;0.30;;;15.70;39.50;;;;;;5034687;28;20452;-70
2022/02/08 11:27:59;;;;;;;0.30;0.30;;;15.10;37.80;;;;;;5033106;28;20412;-70
2022/02/08 11:30:39;;;;;;;0.40;0.40;;;14.50;41.30;;;;;;5034276;28;20401;-70
2022/02/08 11:33:30;;;;;;;0.30;0.30;;;13.90;41.70;;;;;;5034421;28;20919;-70
2022/02/08 11:45:11;;;;;;;0.30;0.30;;;11.10;45.50;;;;;;5034417;28;20618;-70
2022/02/08 11:56:29;;;;;;;0.30;0.30;;;11.80;45.40;;;;;;5032279;28;20285;-71
2022/02/08 12:01:25;;;;;;;0.30;0.30;;;12.20;40.60;;;;;;5033821;28;20541;-70
2022/02/08 12:04:17;;;;;;;0.30;0.30;;;12.40;43.20;;;;;;5033910;28;20485;-70
2022/02/08 12:10:00;;;;;;;0.30;0.30;;;12.10;45.00;;;;;;5033658;28;20513;-71
2022/02/08 12:51:51;;;;;;;0.30;0.30;;;9.90;52.90;;;;;;5037408;28;20197;-71
2022/02/08 12:56:10;;;;;;;0.30;0.30;;;9.30;55.70;;;;;;5037294;28;20721;-70
2022/02/08 13:01:40;;;;;;;0.30;0.30;;;9.10;55.40;;;;;;5036365;28;20332;-70
2022/02/08 13:05:05;;;;;;;0.40;0.40;;;8.70;56.00;;;;;;5035888;28;20284;-71
2022/02/08 13:16:44;;;;;;;0.30;0.30;;;8.50;55.50;;;;;;5037271;28;20274;-71
2022/02/08 14:08:12;;;;;;;0.40;0.40;;;7.20;66.10;;;;;;5036227;28;20169;-70
2022/02/08 14:18:50;;;;;;;0.30;0.30;;;7.30;67.80;;;;;;5035756;28;20758;-70
2022/02/08 14:21:35;;;;;;;0.35;0.35;;;7.30;68.70;;;;;;5034503;28;20208;-71
2022/02/08 14:34:55;;;;;;;0.40;0.40;;;7.10;73.20;;;;;;5035361;28;20683;-70
2022/02/08 15:09:49;;;;;;;0.40;0.40;;;6.80;90.50;;;;;;5033171;28;20232;-70
2022/02/08 15:12:18;;;;;;;0.40;0.40;;;6.90;90.60;;;;;;5034919;28;20182;-70
2022/02/08 15:17:12;;;;;;;0.40;0.40;;;6.80;90.60;;;;;;5034873;28;20184;-71
2022/02/08 15:19:41;;;;;;;0.40;0.40;;;6.80;90.80;;;;;;5033112;28;20184;-71
2022/02/08 15:22:08;;;;;;;0.30;0.30;;;6.70;91.00;;;;;;5034557;28;20579;-70
2022/02/08 15:24:35;;;;;;;0.40;0.40;;;6.60;91.10;;;;;;5034406;28;20656;-71
2022/02/08 15:27:02;;;;;;;0.40;0.40;;;6.60;91.30;;;;;;5032648;28;20542;-70
2022/02/08 15:29:28;;;;;;;0.40;0.40;;;6.60;91.30;;;;;;5032841;28;20167;-71
2022/02/08 15:31:55;;;;;;;0.30;0.30;;;6.40;91.40;;;;;;5033127;28;20182;-70
2022/02/08 15:34:21;;;;;;;0.40;0.40;;;6.30;91.80;;;;;;5033054;28;20256;-69
2022/02/08 15:36:47;;;;;;;0.30;0.30;;;6.30;92.10;;;;;;5033411;28;20632;-73
2022/02/08 15:39:12;;;;;;;0.30;0.30;;;6.30;92.30;;;;;;5034136;28;20170;-74
2022/02/08 15:41:40;;;;;;;0.33;0.33;;;6.20;92.20;;;;;;5033059;28;20167;-75
2022/02/08 15:44:08;;;;;;;0.30;0.30;;;6.10;92.40;;;;;;5033967;28;20225;-73
2022/02/08 15:46:35;;;;;;;0.30;0.30;;;6.00;92.80;;;;;;5024965;28;20187;-76
2022/02/08 15:49:01;;;;;;;0.40;0.40;;;6.00;93.10;;;;;;5030797;28;20163;-75
2022/02/08 15:51:42;;;;;;;0.30;0.30;;;5.90;93.00;;;;;;5031961;28;20177;-74
2022/02/08 16:07:13;;;;;;;0.40;0.40;;;5.70;93.40;;;;;;5032361;28;20216;-73
2022/02/08 16:20:07;;;;;;;0.40;0.40;;;5.40;94.40;;;;;;5031689;28;20642;-70
2022/02/08 16:25:16;;;;;;;0.40;0.40;;;5.10;95.00;;;;;;5033617;28;20193;-70
2022/02/08 16:46:06;;;;;;;0.40;0.40;;;4.90;95.10;;;;;;5033323;28;20197;-73
2022/02/08 16:53:07;;;;;;;0.40;0.40;;;4.70;95.90;;;;;;5033335;28;20674;-70
2022/02/08 16:55:13;;;;;;;0.40;0.40;;;4.60;95.80;;;;;;5022585;28;20203;-70
2022/02/08 16:57:53;;;;;;;0.40;0.40;;;4.70;95.90;;;;;;5033343;28;20166;-75
2022/02/08 17:00:22;;;;;;;0.30;0.30;;;4.60;95.80;;;;;;5030506;28;20548;-74
2022/02/08 17:02:54;;;;;;;0.38;0.38;;;4.60;95.90;;;;;;5033086;28;20278;-69
2022/02/08 17:05:20;;;;;;;0.40;0.40;;;4.50;96.20;;;;;;5031279;28;20625;-70
2022/02/08 17:07:46;;;;;;;0.30;0.30;;;4.40;96.40;;;;;;5031353;28;20183;-70
2022/02/08 17:10:29;;;;;;;0.40;0.40;;;4.30;96.70;;;;;;5032983;28;20209;-69
2022/02/08 17:13:28;;;;;;;0.40;0.40;;;4.30;96.80;;;;;;5030530;28;20179;-70
2022/02/08 17:18:58;;;;;;;0.30;0.30;;;4.30;96.70;;;;;;5031864;28;20258;-72
2022/02/08 17:48:01;;;;;;;0.30;0.30;;;3.90;97.70;;;;;;5034502;28;20237;-69
2022/02/08 17:50:27;;;;;;;0.35;0.35;;;3.90;97.80;;;;;;5034131;28;20331;-70
2022/02/08 17:52:54;;;;;;;0.30;0.30;;;3.90;97.80;;;;;;5034220;28;20273;-70
2022/02/08 17:55:21;;;;;;;0.30;0.30;;;3.90;97.70;;;;;;5034333;28;20198;-70
2022/02/08 17:57:47;;;;;;;0.40;0.40;;;3.80;97.50;;;;;;5034933;28;20181;-69
2022/02/08 18:00:16;;;;;;;0.30;0.30;;;3.80;97.50;;;;;;5034997;28;20177;-69
2022/02/08 18:02:44;;;;;;;0.32;0.32;;;3.80;97.60;;;;;;5035005;28;20509;-70
2022/02/08 18:05:13;;;;;;;0.30;0.30;;;3.70;97.70;;;;;;5035819;28;20194;-69
2022/02/08 18:07:39;;;;;;;0.30;0.30;;;3.60;98.00;;;;;;5035942;28;20175;-70
2022/02/08 18:10:06;;;;;;;0.30;0.30;;;3.70;98.30;;;;;;5035721;28;20652;-69
2022/02/08 18:12:32;;;;;;;0.38;0.38;;;3.60;98.30;;;;;;5035874;28;20178;-69
2022/02/08 18:15:01;;;;;;;0.40;0.40;;;3.60;98.10;;;;;;5035786;28;20205;-70
2022/02/08 18:17:41;;;;;;;0.40;0.40;;;3.60;98.10;;;;;;5035770;28;20194;-70
2022/02/08 18:22:53;;;;;;;0.40;0.40;;;3.60;98.00;;;;;;5036254;28;20256;-69
2022/02/08 18:28:13;;;;;;;0.30;0.30;;;3.50;97.80;;;;;;5036087;28;20181;-69
2022/02/08 19:03:51;;;;;;;0.40;0.40;;;3.40;98.80;;;;;;5032828;28;20196;-73
2022/02/08 19:15:10;;;;;;;0.30;0.30;;;3.10;99.90;;;;;;5018984;28;20182;-76
2022/02/08 19:17:37;;;;;;;0.40;0.40;;;3.10;98.50;;;;;;5034799;28;20173;-73
2022/02/08 19:20:22;;;;;;;0.30;0.30;;;3.10;98.70;;;;;;5034603;28;20173;-74
2022/02/08 19:22:48;;;;;;;0.30;0.30;;;3.10;98.80;;;;;;5033305;28;20199;-77
2022/02/08 19:25:13;;;;;;;0.40;0.40;;;3.10;99.00;;;;;;5034742;28;20198;-69
2022/02/08 19:27:42;;;;;;;0.30;0.30;;;3.10;99.10;;;;;;5033396;28;20168;-75
2022/02/08 19:30:09;;;;;;;0.30;0.30;;;3.10;99.20;;;;;;5034659;28;20612;-77
2022/02/08 19:32:35;;;;;;;0.40;0.40;;;3.10;99.30;;;;;;5034556;28;20185;-73
2022/02/08 19:35:03;;;;;;;0.30;0.30;;;3.10;99.30;;;;;;5034673;28;20199;-73
2022/02/08 19:37:29;;;;;;;0.40;0.40;;;3.10;99.50;;;;;;5035418;28;20419;-76
2022/02/08 19:39:55;;;;;;;0.38;0.38;;;3.20;99.40;;;;;;5034490;28;20185;-75
2022/02/08 19:42:22;;;;;;;0.40;0.40;;;3.20;99.20;;;;;;5034519;28;20646;-75
2022/02/08 19:44:54;;;;;;;0.40;0.40;;;3.20;99.10;;;;;;5034366;28;20189;-75
2022/02/08 19:47:20;;;;;;;0.40;0.40;;;3.10;98.90;;;;;;5034934;28;20164;-76
2022/02/08 19:49:46;;;;;;;0.40;0.40;;;3.10;99.00;;;;;;5034030;28;20573;-76
2022/02/08 19:52:12;;;;;;;0.40;0.40;;;3.10;99.10;;;;;;5034841;28;20172;-75
2022/02/08 19:54:52;;;;;;;0.40;0.40;;;3.20;99.30;;;;;;5034146;28;20547;-77
2022/02/08 19:57:24;;;;;;;0.40;0.40;;;3.20;99.20;;;;;;5034200;28;20263;-74
2022/02/08 19:59:51;;;;;;;0.40;0.40;;;3.20;99.10;;;;;;5030934;28;20579;-75
2022/02/08 20:02:18;;;;;;;0.30;0.30;;;3.20;98.90;;;;;;5033374;28;20200;-74
2022/02/08 20:04:47;;;;;;;0.38;0.38;;;3.20;98.90;;;;;;5033257;28;20192;-74
2022/02/08 20:07:13;;;;;;;0.40;0.40;;;3.10;98.90;;;;;;5033735;28;20180;-75
2022/02/08 20:09:39;;;;;;;0.30;0.30;;;3.10;99.10;;;;;;5033613;28;20570;-75
2022/02/08 20:12:06;;;;;;;0.40;0.40;;;3.10;99.10;;;;;;5032559;28;20177;-74
2022/02/08 20:14:31;;;;;;;0.40;0.40;;;3.00;99.90;;;;;;5033835;28;20172;-79
2022/02/08 20:16:58;;;;;;;0.30;0.30;;;3.10;99.00;;;;;;5033609;28;20217;-74
2022/02/08 20:19:25;;;;;;;0.30;0.30;;;3.00;98.90;;;;;;5033415;28;20462;-75
2022/02/08 20:21:58;;;;;;;0.40;0.40;;;3.00;99.10;;;;;;5033602;28;20173;-76
2022/02/08 20:24:23;;;;;;;0.40;0.40;;;2.90;99.90;;;;;;5033771;28;20180;-79
2022/02/08 20:29:30;;;;;;;0.40;0.40;;;2.90;99.30;;;;;;5033204;28;20175;-74
2022/02/08 20:31:56;;;;;;;0.30;0.30;;;2.90;99.40;;;;;;5032634;28;20524;-74
2022/02/08 20:34:27;;;;;;;0.40;0.40;;;3.00;99.90;;;;;;5033538;28;20192;-76
2022/02/08 20:36:55;;;;;;;0.40;0.40;;;3.00;99.40;;;;;;5033942;28;20174;-75
2022/02/08 20:39:21;;;;;;;0.38;0.38;;;3.00;99.30;;;;;;5033574;28;20590;-73
2022/02/08 20:41:47;;;;;;;0.30;0.30;;;3.00;99.40;;;;;;5033941;28;20165;-75
2022/02/08 20:44:16;;;;;;;0.30;0.30;;;3.00;99.30;;;;;;5033909;28;20213;-77
2022/02/08 20:46:49;;;;;;;0.30;0.30;;;3.00;99.40;;;;;;5033540;28;20405;-73
2022/02/08 20:49:15;;;;;;;0.30;0.30;;;3.00;99.40;;;;;;5033277;28;20177;-75
2022/02/08 20:51:43;;;;;;;0.30;0.30;;;3.00;99.50;;;;;;5033531;28;20169;-72
2022/02/08 20:54:09;;;;;;;0.30;0.30;;;3.00;99.30;;;;;;5033766;28;20182;-71
2022/02/08 20:56:37;;;;;;;0.38;0.38;;;3.00;99.30;;;;;;5031850;28;20195;-71
2022/02/08 20:59:09;;;;;;;0.40;0.40;;;3.00;99.20;;;;;;5032923;28;20180;-70